Time;durP1;ratioP1;P1;durP2;ratioP2;P2;SDS_P1;SDS_P2;PMS_P1;PMS_P2;Temp;Humidity;BMP_temperature;BMP_pressure;BME280_temperature;BME280_humidity;BME280_pressure;Samples;Min_cycle;Max_cycle;Signal;HPM_P1;HPM_P2
2022/10/06 00:01:08;;;;;;;4.78;2.15;;;10.50;80.50;;;;;;5054985;28;20684;-76
2022/10/06 00:03:37;;;;;;;1.95;1.85;;;10.40;80.50;;;;;;5052643;28;20242;-76
2022/10/06 00:06:03;;;;;;;2.20;2.10;;;10.40;80.90;;;;;;5054330;28;20179;-76
2022/10/06 00:08:30;;;;;;;2.58;2.38;;;10.40;81.20;;;;;;5055365;28;20180;-76
2022/10/06 00:10:56;;;;;;;2.55;2.40;;;10.40;80.80;;;;;;5052905;28;20179;-76
2022/10/06 00:13:23;;;;;;;2.22;2.03;;;10.40;81.00;;;;;;5052487;28;20187;-76
2022/10/06 00:15:49;;;;;;;2.00;1.95;;;10.40;81.10;;;;;;5046589;28;20704;-76
2022/10/06 00:18:15;;;;;;;1.88;1.77;;;10.30;81.30;;;;;;5049345;28;20200;-76
2022/10/06 00:20:42;;;;;;;5.43;2.28;;;10.30;81.30;;;;;;5054857;28;20183;-76
2022/10/06 00:23:08;;;;;;;1.95;1.85;;;10.30;82.00;;;;;;5050401;28;20191;-77
2022/10/06 00:25:34;;;;;;;4.88;2.97;;;10.30;82.30;;;;;;5052363;28;20242;-76
2022/10/06 00:28:00;;;;;;;4.07;2.95;;;10.30;82.00;;;;;;5052234;28;20175;-76
2022/10/06 00:30:30;;;;;;;3.38;3.13;;;10.20;81.90;;;;;;5046887;28;20214;-76
2022/10/06 00:32:59;;;;;;;3.70;3.47;;;10.20;82.60;;;;;;5049497;28;20190;-76
2022/10/06 00:35:27;;;;;;;4.15;2.92;;;10.20;82.30;;;;;;5054146;28;20183;-76
2022/10/06 00:37:52;;;;;;;4.25;2.75;;;10.20;82.70;;;;;;5055087;28;20248;-76
2022/10/06 00:40:19;;;;;;;3.70;3.03;;;10.10;82.50;;;;;;5047396;28;20752;-76
2022/10/06 00:42:54;;;;;;;3.95;3.65;;;10.10;83.10;;;;;;5053300;28;20171;-76
2022/10/06 00:45:27;;;;;;;5.10;3.67;;;10.10;83.00;;;;;;5051855;28;20305;-76
2022/10/06 00:47:56;;;;;;;7.13;3.77;;;10.10;83.40;;;;;;5052792;28;20183;-76
2022/10/06 00:50:22;;;;;;;5.70;4.05;;;10.10;83.30;;;;;;5053270;28;20179;-76
2022/10/06 00:52:48;;;;;;;6.93;4.67;;;10.10;83.30;;;;;;5049195;28;20193;-76
2022/10/06 00:55:14;;;;;;;2.63;2.53;;;10.00;83.20;;;;;;5046030;28;20183;-76
2022/10/06 00:57:40;;;;;;;10.23;1.90;;;10.00;84.40;;;;;;5056463;28;20517;-76
2022/10/06 01:00:08;;;;;;;2.95;2.65;;;10.00;83.60;;;;;;5050493;28;20183;-76
2022/10/06 01:03:09;;;;;;;3.17;2.83;;;10.00;83.60;;;;;;5050905;28;20631;-76
2022/10/06 01:05:41;;;;;;;2.33;2.23;;;9.90;83.00;;;;;;5043435;28;20179;-76
2022/10/06 01:08:07;;;;;;;2.75;2.53;;;9.80;82.50;;;;;;5048184;28;20196;-76
2022/10/06 01:10:33;;;;;;;2.03;1.93;;;9.80;82.30;;;;;;5046744;28;20188;-76
2022/10/06 01:13:00;;;;;;;1.95;1.95;;;9.80;82.80;;;;;;5047665;28;20711;-76
2022/10/06 01:15:27;;;;;;;2.40;2.30;;;9.80;82.60;;;;;;5050299;28;20622;-77
2022/10/06 01:18:12;;;;;;;4.63;2.23;;;9.70;82.50;;;;;;5049334;28;20219;-75
2022/10/06 01:20:43;;;;;;;2.90;2.60;;;9.80;82.90;;;;;;5030291;28;20658;-76
2022/10/06 01:23:09;;;;;;;5.90;2.58;;;9.70;83.10;;;;;;5046903;28;20201;-76
2022/10/06 01:25:36;;;;;;;3.73;2.50;;;9.70;83.50;;;;;;5044822;28;20184;-75
2022/10/06 01:28:04;;;;;;;1.85;1.85;;;9.70;83.20;;;;;;5046103;28;20210;-76
2022/10/06 01:30:38;;;;;;;2.80;2.60;;;9.70;83.20;;;;;;5043372;28;20485;-76
2022/10/06 01:33:04;;;;;;;1.90;1.80;;;9.70;82.70;;;;;;5043501;28;20192;-77
2022/10/06 01:35:30;;;;;;;3.03;2.30;;;9.70;83.00;;;;;;5042049;28;20192;-76
2022/10/06 01:37:57;;;;;;;2.60;2.42;;;9.70;83.30;;;;;;5041335;28;20214;-76
2022/10/06 01:40:25;;;;;;;3.87;2.47;;;9.70;83.50;;;;;;5046605;28;20207;-76
2022/10/06 01:42:51;;;;;;;2.77;2.53;;;9.70;83.60;;;;;;5053177;28;20294;-76
2022/10/06 01:45:17;;;;;;;2.27;2.17;;;9.70;83.30;;;;;;5052121;28;20959;-76
2022/10/06 01:47:43;;;;;;;2.27;2.17;;;9.60;83.10;;;;;;5048655;28;20182;-76
2022/10/06 01:50:08;;;;;;;2.50;2.30;;;9.60;83.50;;;;;;5049723;28;20252;-76
2022/10/06 01:52:35;;;;;;;2.43;2.33;;;9.60;83.30;;;;;;5053710;28;20194;-76
2022/10/06 01:55:01;;;;;;;2.40;2.30;;;9.60;83.20;;;;;;5049512;28;20187;-76
2022/10/06 01:57:27;;;;;;;2.43;2.23;;;9.50;83.20;;;;;;5049089;28;20215;-76
2022/10/06 01:59:52;;;;;;;2.47;2.27;;;9.50;83.80;;;;;;5049464;28;20543;-76
2022/10/06 02:02:18;;;;;;;3.97;2.37;;;9.50;83.70;;;;;;5050372;28;20179;-76
2022/10/06 02:04:44;;;;;;;2.50;2.33;;;9.50;83.60;;;;;;5050188;28;20183;-76
2022/10/06 02:07:10;;;;;;;2.37;2.27;;;9.40;83.50;;;;;;5052859;28;20194;-76
2022/10/06 02:09:36;;;;;;;3.00;2.60;;;9.40;83.60;;;;;;5047789;28;20183;-76
2022/10/06 02:12:03;;;;;;;2.90;2.77;;;9.40;83.60;;;;;;5049584;28;20925;-76
2022/10/06 02:14:30;;;;;;;2.97;2.53;;;9.40;83.70;;;;;;5045138;28;20275;-76
2022/10/06 02:16:56;;;;;;;2.90;2.70;;;9.40;83.90;;;;;;5047985;28;20178;-76
2022/10/06 02:19:22;;;;;;;3.80;3.13;;;9.40;83.80;;;;;;5056757;28;20223;-76
2022/10/06 02:21:47;;;;;;;3.40;3.03;;;9.40;84.30;;;;;;5052799;28;20274;-76
2022/10/06 02:24:13;;;;;;;3.00;2.80;;;9.30;84.30;;;;;;5055887;28;20642;-76
2022/10/06 02:26:39;;;;;;;4.97;3.13;;;9.30;84.20;;;;;;5054677;28;20210;-75
2022/10/06 02:29:04;;;;;;;4.50;2.63;;;9.30;84.40;;;;;;5053361;28;20188;-76
2022/10/06 02:31:30;;;;;;;4.30;3.60;;;9.30;84.60;;;;;;5059259;28;20174;-76
2022/10/06 02:33:57;;;;;;;4.73;3.13;;;9.30;84.40;;;;;;5055251;28;20179;-76
2022/10/06 02:36:23;;;;;;;3.00;2.80;;;9.30;84.30;;;;;;5055403;28;20668;-77
2022/10/06 02:38:49;;;;;;;4.63;2.47;;;9.30;84.40;;;;;;5052042;28;20215;-76
2022/10/06 02:41:15;;;;;;;1.87;1.87;;;9.30;84.50;;;;;;5061092;28;20175;-76
2022/10/06 02:43:40;;;;;;;3.53;2.87;;;9.30;84.60;;;;;;5062551;28;20196;-76
2022/10/06 02:46:11;;;;;;;4.13;2.80;;;9.30;84.60;;;;;;5058734;28;20870;-76
2022/10/06 02:48:38;;;;;;;3.17;2.60;;;9.30;84.30;;;;;;5062517;28;20179;-76
2022/10/06 02:51:10;;;;;;;2.30;2.20;;;9.30;84.60;;;;;;5059362;28;20636;-76
2022/10/06 02:53:36;;;;;;;2.37;2.17;;;9.30;84.20;;;;;;5063222;28;20261;-76
2022/10/06 02:56:11;;;;;;;3.90;2.53;;;9.20;84.30;;;;;;5061892;28;20286;-76
2022/10/06 02:58:41;;;;;;;3.07;2.80;;;9.20;84.60;;;;;;5058447;28;21967;-76
2022/10/06 03:01:19;;;;;;;2.37;2.27;;;9.20;84.30;;;;;;5055555;28;20177;-76
2022/10/06 03:03:45;;;;;;;3.47;3.17;;;9.20;84.30;;;;;;5055949;28;20190;-76
2022/10/06 03:06:22;;;;;;;2.67;2.47;;;9.20;84.80;;;;;;5057391;28;20184;-76
2022/10/06 03:08:51;;;;;;;5.10;2.77;;;9.10;84.70;;;;;;5054095;28;20282;-77
2022/10/06 03:11:19;;;;;;;3.57;2.43;;;9.10;84.60;;;;;;5061022;28;20267;-76
2022/10/06 03:13:46;;;;;;;3.30;3.00;;;9.10;84.30;;;;;;5062224;28;20185;-76
2022/10/06 03:16:22;;;;;;;3.13;2.83;;;9.10;85.00;;;;;;5066613;28;20237;-76
2022/10/06 03:18:50;;;;;;;2.60;2.27;;;9.00;84.70;;;;;;5054507;28;20234;-76
2022/10/06 03:21:17;;;;;;;2.93;2.73;;;9.10;85.00;;;;;;5050375;28;20192;-76
2022/10/06 03:23:47;;;;;;;2.57;2.43;;;9.00;85.00;;;;;;5054537;28;20944;-76
2022/10/06 03:26:16;;;;;;;2.80;2.33;;;9.00;85.30;;;;;;5055157;28;20179;-75
2022/10/06 03:28:42;;;;;;;2.77;2.53;;;9.00;85.30;;;;;;5046855;28;20192;-75
2022/10/06 03:31:08;;;;;;;2.53;2.40;;;9.00;85.20;;;;;;5048386;28;20669;-75
2022/10/06 03:33:34;;;;;;;5.83;2.77;;;9.00;85.20;;;;;;5050515;28;20242;-75
2022/10/06 03:36:09;;;;;;;3.23;2.40;;;9.00;85.30;;;;;;5052984;28;20252;-75
2022/10/06 03:38:35;;;;;;;3.67;2.83;;;8.90;84.80;;;;;;5055383;28;20302;-75
2022/10/06 03:41:13;;;;;;;2.70;2.50;;;8.90;84.80;;;;;;5052428;28;20245;-75
2022/10/06 03:43:42;;;;;;;6.13;2.97;;;8.90;85.00;;;;;;5052455;28;20205;-75
2022/10/06 03:46:10;;;;;;;2.67;2.47;;;8.90;85.20;;;;;;5053494;28;20267;-75
2022/10/06 03:48:36;;;;;;;2.53;2.27;;;8.90;85.20;;;;;;5047646;28;20179;-75
2022/10/06 03:51:14;;;;;;;2.40;2.20;;;8.90;85.70;;;;;;5051269;28;20179;-75
2022/10/06 03:53:42;;;;;;;3.07;2.13;;;8.90;85.20;;;;;;5051027;28;20203;-75
2022/10/06 03:56:17;;;;;;;1.90;1.83;;;8.90;85.40;;;;;;5051075;28;20183;-75
2022/10/06 03:58:45;;;;;;;4.37;2.20;;;8.80;85.30;;;;;;5046273;28;20700;-75
2022/10/06 04:01:25;;;;;;;1.90;1.80;;;8.80;85.30;;;;;;5048975;28;20184;-73
2022/10/06 04:03:53;;;;;;;1.73;1.67;;;8.80;85.00;;;;;;5046975;28;20194;-76
2022/10/06 04:06:19;;;;;;;2.37;2.17;;;8.80;85.40;;;;;;5052483;28;20183;-76
2022/10/06 04:08:47;;;;;;;3.63;2.23;;;8.80;85.40;;;;;;5051485;28;20186;-76
2022/10/06 04:11:16;;;;;;;2.47;2.27;;;8.70;85.30;;;;;;5051412;28;20175;-75
2022/10/06 04:13:44;;;;;;;3.87;2.17;;;8.70;85.80;;;;;;5049819;28;20654;-76
2022/10/06 04:16:16;;;;;;;2.67;2.57;;;8.70;85.90;;;;;;5045724;28;20191;-76
2022/10/06 04:18:43;;;;;;;3.23;3.03;;;8.70;86.20;;;;;;5057018;28;20989;-76
2022/10/06 04:21:09;;;;;;;3.77;3.23;;;8.70;86.10;;;;;;5064189;28;20566;-76
2022/10/06 04:23:35;;;;;;;3.70;3.43;;;8.60;86.30;;;;;;5047212;28;20175;-76
2022/10/06 04:26:08;;;;;;;4.03;3.67;;;8.60;86.10;;;;;;5056245;28;20745;-75
2022/10/06 04:28:35;;;;;;;4.93;3.57;;;8.60;86.90;;;;;;5060319;28;20193;-76
2022/10/06 04:31:01;;;;;;;3.77;3.50;;;8.50;87.10;;;;;;5057157;28;20187;-76
2022/10/06 04:33:27;;;;;;;7.03;2.90;;;8.50;87.30;;;;;;5056917;28;20222;-77
2022/10/06 04:35:58;;;;;;;4.70;3.83;;;8.50;87.30;;;;;;5051927;28;20866;-75
2022/10/06 04:38:25;;;;;;;3.23;3.03;;;8.50;87.60;;;;;;5052623;28;20315;-78
2022/10/06 04:40:50;;;;;;;5.20;3.50;;;8.40;87.60;;;;;;5051455;28;20426;-78
2022/10/06 04:43:16;;;;;;;4.33;2.77;;;8.40;87.50;;;;;;5053860;28;20175;-76
2022/10/06 04:45:42;;;;;;;5.43;2.27;;;8.40;87.90;;;;;;5049373;28;20191;-76
2022/10/06 04:48:07;;;;;;;3.30;3.00;;;8.40;88.10;;;;;;5050564;28;20179;-76
2022/10/06 04:50:33;;;;;;;9.13;2.87;;;8.40;88.30;;;;;;5049826;28;20207;-76
2022/10/06 04:52:59;;;;;;;2.50;2.30;;;8.40;88.10;;;;;;5052699;28;20266;-75
2022/10/06 04:55:24;;;;;;;2.20;2.07;;;8.40;88.10;;;;;;5051088;28;20223;-75
2022/10/06 04:57:50;;;;;;;2.63;2.47;;;8.40;88.30;;;;;;5055554;28;20206;-76
2022/10/06 05:00:22;;;;;;;3.93;2.93;;;8.40;88.40;;;;;;5056332;28;20187;-76
2022/10/06 05:02:48;;;;;;;2.77;2.67;;;8.30;88.40;;;;;;5047319;28;20278;-75
2022/10/06 05:05:14;;;;;;;2.60;2.40;;;8.30;88.40;;;;;;5043848;28;20271;-76
2022/10/06 05:07:43;;;;;;;2.73;2.53;;;8.30;88.30;;;;;;5045229;28;20184;-76
2022/10/06 05:10:09;;;;;;;1.80;1.70;;;8.30;88.30;;;;;;5045580;28;20195;-76
2022/10/06 05:12:35;;;;;;;2.17;2.07;;;8.30;88.60;;;;;;5047479;28;20183;-75
2022/10/06 05:15:01;;;;;;;3.87;2.07;;;8.40;88.60;;;;;;5046291;28;20582;-77
2022/10/06 05:17:27;;;;;;;1.80;1.70;;;8.30;88.30;;;;;;5042920;28;20204;-76
2022/10/06 05:19:53;;;;;;;1.90;1.80;;;8.30;88.10;;;;;;5035502;28;20194;-76
2022/10/06 05:22:18;;;;;;;1.90;1.90;;;8.40;88.10;;;;;;5050313;28;20696;-77
2022/10/06 05:24:44;;;;;;;2.97;2.63;;;8.40;87.90;;;;;;5047538;28;20183;-76
2022/10/06 05:27:10;;;;;;;2.10;2.00;;;8.40;88.10;;;;;;5045002;28;20199;-75
2022/10/06 05:29:35;;;;;;;2.43;2.33;;;8.40;88.10;;;;;;5050104;28;20187;-75
2022/10/06 05:32:01;;;;;;;3.67;3.13;;;8.50;88.50;;;;;;5047875;28;20267;-75
2022/10/06 05:34:27;;;;;;;2.83;2.50;;;8.50;88.50;;;;;;5043757;28;20184;-75
2022/10/06 05:36:52;;;;;;;4.50;3.03;;;8.60;88.60;;;;;;5048563;28;20187;-77
2022/10/06 05:39:18;;;;;;;2.63;2.37;;;8.60;88.60;;;;;;5051676;28;20336;-75
2022/10/06 05:41:44;;;;;;;4.17;3.43;;;8.60;89.50;;;;;;5054408;28;20180;-75
2022/10/06 05:44:09;;;;;;;4.53;3.53;;;8.70;88.80;;;;;;5054105;28;20294;-76
2022/10/06 05:46:35;;;;;;;3.17;2.80;;;8.70;88.80;;;;;;5053834;28;20183;-77
2022/10/06 05:49:03;;;;;;;3.90;3.27;;;8.70;88.20;;;;;;5049893;28;20192;-74
2022/10/06 05:51:31;;;;;;;2.97;2.77;;;8.70;88.20;;;;;;5049274;28;20175;-75
2022/10/06 05:53:58;;;;;;;5.03;2.90;;;8.80;88.00;;;;;;5043625;28;20183;-75
2022/10/06 05:56:25;;;;;;;3.17;2.90;;;8.90;87.90;;;;;;5052117;28;20195;-76
2022/10/06 05:58:53;;;;;;;4.00;2.67;;;8.90;87.80;;;;;;5042884;28;20280;-76
2022/10/06 06:01:30;;;;;;;6.83;3.47;;;9.00;88.30;;;;;;5044987;28;20179;-75
2022/10/06 06:04:07;;;;;;;5.00;2.97;;;9.10;88.20;;;;;;5045036;28;20710;-76
2022/10/06 06:06:44;;;;;;;3.97;3.03;;;9.20;87.80;;;;;;5046105;28;20183;-75
2022/10/06 06:09:28;;;;;;;6.07;3.60;;;9.30;87.60;;;;;;5048819;28;20186;-75
2022/10/06 06:11:54;;;;;;;5.70;3.40;;;9.40;87.50;;;;;;5037553;28;20578;-74
2022/10/06 06:15:59;;;;;;;4.13;3.60;;;9.40;88.00;;;;;;5046468;28;20191;-74
2022/10/06 06:17:10;;;;;;;3.70;3.40;;;9.50;88.10;;;;;;5049883;28;20230;-74
2022/10/06 06:19:36;;;;;;;4.10;3.80;;;9.60;88.10;;;;;;5051779;28;21817;-75
2022/10/06 06:22:01;;;;;;;6.10;3.43;;;9.70;88.00;;;;;;5046191;28;20186;-74
2022/10/06 06:24:27;;;;;;;4.13;3.50;;;9.80;88.00;;;;;;5051074;28;20222;-75
2022/10/06 06:26:53;;;;;;;4.63;3.53;;;9.90;88.10;;;;;;5052433;28;20660;-74
2022/10/06 06:29:18;;;;;;;3.83;3.53;;;9.90;87.90;;;;;;5044352;28;20198;-76
2022/10/06 06:31:45;;;;;;;3.70;3.42;;;10.00;87.80;;;;;;5048466;28;20253;-75
2022/10/06 06:34:11;;;;;;;3.43;3.23;;;10.10;87.80;;;;;;5045404;28;20186;-74
2022/10/06 06:36:43;;;;;;;3.50;3.20;;;10.20;87.80;;;;;;5042544;28;20180;-74
2022/10/06 06:39:12;;;;;;;3.85;3.55;;;10.20;87.30;;;;;;5045436;28;20238;-74
2022/10/06 06:41:40;;;;;;;4.13;3.70;;;10.30;87.20;;;;;;5045935;28;20184;-74
2022/10/06 06:44:13;;;;;;;6.50;3.67;;;10.30;87.10;;;;;;5049357;28;21063;-73
2022/10/06 06:46:41;;;;;;;5.40;4.00;;;10.40;87.10;;;;;;5047065;28;20187;-74
2022/10/06 06:49:08;;;;;;;4.27;3.83;;;10.50;86.90;;;;;;5047894;28;20187;-73
2022/10/06 06:51:36;;;;;;;2.93;2.77;;;10.60;87.00;;;;;;5045315;28;20184;-74
2022/10/06 06:54:03;;;;;;;3.22;3.03;;;10.60;86.80;;;;;;5041601;28;20183;-75
2022/10/06 06:56:37;;;;;;;3.55;3.05;;;10.70;86.80;;;;;;5045930;28;20869;-75
2022/10/06 06:59:16;;;;;;;3.42;2.85;;;10.80;86.60;;;;;;5051510;28;20211;-77
2022/10/06 07:01:44;;;;;;;3.97;3.33;;;10.80;86.50;;;;;;5042969;28;20214;-75
2022/10/06 07:04:11;;;;;;;3.20;3.10;;;10.90;86.40;;;;;;5049484;28;20270;-74
2022/10/06 07:06:39;;;;;;;3.40;3.13;;;11.00;86.00;;;;;;5053924;28;20695;-74
2022/10/06 07:09:05;;;;;;;3.45;3.20;;;11.00;85.90;;;;;;5049165;28;20199;-76
2022/10/06 07:11:34;;;;;;;4.70;3.65;;;11.10;85.90;;;;;;5047450;28;20187;-75
2022/10/06 07:14:05;;;;;;;4.78;3.13;;;11.20;85.50;;;;;;5057168;28;20191;-75
2022/10/06 07:25:21;;;;;;;8.98;4.45;;;11.50;85.10;;;;;;5055474;28;20359;-74
2022/10/06 07:27:51;;;;;;;8.85;4.32;;;11.60;85.60;;;;;;5055485;28;20179;-75
2022/10/06 07:30:25;;;;;;;5.55;4.55;;;11.70;85.90;;;;;;5052399;28;20666;-74
2022/10/06 07:32:52;;;;;;;7.03;4.78;;;11.80;86.50;;;;;;5054444;28;20241;-75
2022/10/06 07:35:19;;;;;;;5.15;4.65;;;12.00;86.60;;;;;;5046322;28;20180;-74
2022/10/06 07:37:45;;;;;;;12.63;4.70;;;12.30;84.70;;;;;;5050651;28;20239;-74
2022/10/06 07:40:12;;;;;;;6.03;5.25;;;12.70;83.90;;;;;;5054282;28;20183;-75
2022/10/06 07:42:50;;;;;;;3.83;3.53;;;13.20;82.70;;;;;;5054839;28;20214;-76
2022/10/06 07:48:17;;;;;;;3.58;3.38;;;14.70;80.20;;;;;;5053335;28;20280;-75
2022/10/06 07:50:46;;;;;;;6.03;4.70;;;15.70;80.80;;;;;;5053513;28;20688;-75
2022/10/06 07:53:12;;;;;;;9.20;5.78;;;16.70;79.10;;;;;;5048684;28;20188;-75
2022/10/06 07:55:40;;;;;;;7.68;6.30;;;17.60;77.10;;;;;;5054664;28;20175;-75
2022/10/06 07:58:21;;;;;;;7.45;5.88;;;18.60;74.90;;;;;;5055567;28;20251;-75
2022/10/06 08:00:47;;;;;;;13.85;6.00;;;19.60;72.30;;;;;;5054576;28;20186;-75
2022/10/06 08:03:16;;;;;;;8.65;5.93;;;20.40;70.30;;;;;;5050894;28;20179;-74
2022/10/06 08:05:46;;;;;;;7.32;5.78;;;21.20;68.90;;;;;;5053256;28;20694;-74
2022/10/06 08:08:13;;;;;;;5.60;5.20;;;22.00;65.80;;;;;;5053305;28;21097;-74
2022/10/06 08:10:40;;;;;;;6.85;5.60;;;22.70;65.60;;;;;;5052935;28;20203;-74
2022/10/06 08:13:06;;;;;;;8.73;5.75;;;23.30;62.20;;;;;;5058015;28;20176;-74
2022/10/06 08:15:32;;;;;;;6.47;5.85;;;23.80;63.20;;;;;;5048980;28;20183;-74
2022/10/06 08:17:59;;;;;;;5.40;4.97;;;24.20;61.10;;;;;;5055316;28;20676;-74
2022/10/06 08:20:26;;;;;;;5.63;4.97;;;24.50;61.90;;;;;;5053118;28;20184;-75
2022/10/06 08:22:53;;;;;;;9.00;5.32;;;24.80;61.30;;;;;;5050880;28;20254;-74
2022/10/06 08:25:19;;;;;;;6.43;5.70;;;25.30;61.60;;;;;;5051489;28;20657;-75
2022/10/06 08:27:45;;;;;;;7.88;5.88;;;25.80;60.70;;;;;;5054605;28;20573;-73
2022/10/06 08:30:12;;;;;;;7.03;6.32;;;26.40;59.60;;;;;;5051687;28;20183;-74
2022/10/06 08:32:38;;;;;;;6.63;5.78;;;27.10;57.60;;;;;;5051529;28;20184;-74
2022/10/06 08:35:04;;;;;;;7.10;6.43;;;27.70;57.40;;;;;;5053621;28;20182;-74
2022/10/06 08:37:30;;;;;;;8.48;6.28;;;28.30;55.40;;;;;;5052589;28;20891;-74
2022/10/06 08:39:56;;;;;;;7.60;6.38;;;28.80;55.20;;;;;;5055876;28;20266;-74
2022/10/06 08:42:32;;;;;;;10.05;6.15;;;29.40;53.40;;;;;;5047708;28;20220;-74
2022/10/06 08:45:08;;;;;;;6.75;6.15;;;29.80;54.00;;;;;;5052314;28;20191;-74
2022/10/06 08:47:35;;;;;;;6.70;6.15;;;30.20;51.70;;;;;;5056680;28;20549;-75
2022/10/06 08:50:04;;;;;;;6.25;5.65;;;30.60;53.40;;;;;;5050660;28;20185;-73
2022/10/06 08:52:45;;;;;;;5.95;5.15;;;30.80;49.80;;;;;;5053091;28;20190;-74
2022/10/06 08:55:14;;;;;;;5.40;4.93;;;31.00;51.50;;;;;;5051289;28;20248;-73
2022/10/06 08:57:55;;;;;;;6.35;5.95;;;31.10;52.60;;;;;;5049870;28;20803;-75
2022/10/06 09:00:21;;;;;;;6.30;5.88;;;31.30;49.20;;;;;;5048973;28;20694;-73
2022/10/06 09:02:48;;;;;;;6.18;5.65;;;31.20;49.60;;;;;;5052322;28;20199;-73
2022/10/06 09:05:18;;;;;;;6.72;5.20;;;31.30;51.50;;;;;;5050695;28;20241;-73
2022/10/06 09:08:18;;;;;;;5.80;5.22;;;31.50;52.10;;;;;;5051562;28;20182;-74
2022/10/06 09:11:33;;;;;;;5.03;4.70;;;31.70;50.70;;;;;;5048548;28;20186;-74
2022/10/06 09:14:04;;;;;;;5.53;5.03;;;32.00;49.00;;;;;;5024784;28;20756;-75
2022/10/06 09:16:35;;;;;;;4.80;4.40;;;32.10;51.00;;;;;;5033047;28;20308;-74
2022/10/06 09:19:14;;;;;;;4.95;4.57;;;32.30;51.30;;;;;;5025254;28;20425;-73
2022/10/06 09:21:47;;;;;;;5.07;4.40;;;32.50;47.50;;;;;;5033055;28;20284;-73
2022/10/06 09:24:16;;;;;;;5.75;4.18;;;32.60;48.30;;;;;;5036178;28;20198;-74
2022/10/06 09:26:45;;;;;;;4.43;4.05;;;32.50;47.20;;;;;;5027210;28;20184;-74
2022/10/06 09:29:12;;;;;;;8.05;4.45;;;32.30;48.50;;;;;;5027657;28;20195;-73
2022/10/06 09:31:43;;;;;;;5.32;4.38;;;32.30;49.30;;;;;;5024301;28;20235;-73
2022/10/06 09:34:51;;;;;;;6.30;4.03;;;32.20;49.30;;;;;;5032085;28;20214;-74
2022/10/06 09:37:17;;;;;;;9.15;4.20;;;32.20;47.30;;;;;;4922330;29;20207;-73
2022/10/06 09:39:49;;;;;;;4.45;4.25;;;32.20;48.40;;;;;;4922504;29;20633;-73
2022/10/06 09:42:21;;;;;;;5.43;4.88;;;32.30;45.70;;;;;;4920837;29;20644;-73
2022/10/06 09:45:06;;;;;;;4.05;3.88;;;32.30;47.90;;;;;;4941071;28;20214;-73
2022/10/06 09:47:38;;;;;;;3.78;3.50;;;32.60;49.60;;;;;;4957487;28;20194;-73
2022/10/06 09:50:26;;;;;;;4.45;4.05;;;33.00;48.80;;;;;;4959315;28;20930;-74
2022/10/06 09:53:00;;;;;;;4.20;3.97;;;33.50;45.20;;;;;;4960793;28;20228;-74
2022/10/06 09:55:28;;;;;;;4.07;3.88;;;33.90;48.50;;;;;;4959461;28;20272;-75
2022/10/06 09:57:56;;;;;;;6.63;4.10;;;34.40;43.00;;;;;;4960747;28;20209;-74
2022/10/06 10:00:29;;;;;;;4.88;4.38;;;34.70;47.10;;;;;;4960383;28;20205;-74
2022/10/06 10:03:03;;;;;;;4.82;4.47;;;35.00;46.00;;;;;;4962965;28;20189;-74
2022/10/06 10:05:32;;;;;;;3.90;3.80;;;35.30;45.70;;;;;;4962735;28;20194;-74
2022/10/06 10:08:24;;;;;;;4.43;4.13;;;35.30;46.40;;;;;;4960219;28;20768;-74
2022/10/06 10:12:23;;;;;;;3.53;3.33;;;35.40;41.30;;;;;;4960165;28;20181;-73
2022/10/06 10:13:57;;;;;;;4.18;3.97;;;35.40;42.80;;;;;;5003474;28;20202;-73
2022/10/06 10:16:25;;;;;;;4.55;4.10;;;35.30;44.10;;;;;;5049022;28;20183;-73
2022/10/06 10:18:51;;;;;;;5.47;3.85;;;34.90;43.50;;;;;;5048412;28;20222;-74
2022/10/06 10:21:29;;;;;;;4.35;3.85;;;34.80;46.70;;;;;;5049910;28;20193;-74
2022/10/06 10:24:01;;;;;;;4.20;3.35;;;35.00;46.70;;;;;;5051140;28;20187;-73
2022/10/06 10:26:29;;;;;;;3.20;3.10;;;35.00;46.20;;;;;;5047124;28;20191;-74
2022/10/06 10:29:18;;;;;;;2.67;2.50;;;35.20;45.50;;;;;;5048415;28;20228;-74
2022/10/06 10:32:07;;;;;;;6.35;2.78;;;35.50;44.60;;;;;;5047390;28;20186;-74
2022/10/06 10:35:01;;;;;;;3.45;2.88;;;35.80;43.30;;;;;;5051401;28;20282;-74
2022/10/06 10:37:39;;;;;;;3.00;2.83;;;36.00;42.60;;;;;;5050242;28;20683;-74
2022/10/06 10:40:11;;;;;;;3.08;2.88;;;36.20;41.30;;;;;;5046451;28;20179;-74
2022/10/06 10:42:48;;;;;;;2.78;2.58;;;36.20;43.90;;;;;;5055405;28;20183;-74
2022/10/06 10:45:27;;;;;;;2.38;2.33;;;36.20;42.80;;;;;;5046975;28;20205;-75
2022/10/06 10:47:55;;;;;;;3.05;2.78;;;36.30;45.30;;;;;;5055263;28;20205;-73
2022/10/06 10:50:42;;;;;;;2.45;2.40;;;36.50;44.10;;;;;;5053837;28;20270;-74
2022/10/06 10:53:17;;;;;;;3.05;2.65;;;36.70;43.70;;;;;;5048747;28;20183;-75
2022/10/06 10:55:46;;;;;;;2.13;2.13;;;36.90;38.30;;;;;;5054433;28;20246;-76
2022/10/06 10:58:17;;;;;;;3.90;2.20;;;36.90;39.50;;;;;;5053647;28;20210;-74
2022/10/06 11:00:48;;;;;;;1.80;1.80;;;36.80;43.30;;;;;;5056331;28;20190;-74
2022/10/06 11:03:14;;;;;;;1.80;1.73;;;36.90;42.60;;;;;;5056032;28;20333;-75
2022/10/06 11:06:00;;;;;;;3.80;2.03;;;37.00;40.90;;;;;;5051191;28;20191;-75
2022/10/06 11:08:52;;;;;;;1.48;1.38;;;37.20;40.60;;;;;;5048454;28;20187;-75
2022/10/06 11:11:24;;;;;;;2.80;2.40;;;37.40;41.80;;;;;;5052379;28;20189;-75
2022/10/06 11:13:53;;;;;;;1.42;1.42;;;37.20;39.80;;;;;;5049828;28;20221;-75
2022/10/06 11:16:24;;;;;;;1.50;1.50;;;37.10;36.60;;;;;;5047699;28;20178;-75
2022/10/06 11:19:11;;;;;;;1.52;1.42;;;36.90;40.80;;;;;;5050006;28;20215;-76
2022/10/06 11:22:09;;;;;;;1.40;1.30;;;36.80;39.50;;;;;;5052632;28;20521;-76
2022/10/06 11:24:49;;;;;;;4.03;1.50;;;36.80;37.30;;;;;;5055602;28;20190;-76
2022/10/06 11:27:21;;;;;;;0.98;0.98;;;36.70;36.00;;;;;;5052154;28;20240;-76
2022/10/06 11:30:04;;;;;;;1.45;0.90;;;36.70;37.90;;;;;;5048524;28;20194;-75
2022/10/06 11:32:42;;;;;;;0.90;0.90;;;36.50;38.80;;;;;;5045347;28;20723;-75
2022/10/06 11:35:25;;;;;;;2.17;1.23;;;36.30;39.40;;;;;;5051189;28;20202;-75
2022/10/06 11:38:12;;;;;;;1.60;1.40;;;36.10;37.10;;;;;;5054124;28;20210;-76
2022/10/06 11:40:47;;;;;;;1.20;1.20;;;36.00;36.50;;;;;;5055135;28;20285;-75
2022/10/06 11:43:16;;;;;;;1.23;1.10;;;35.80;39.40;;;;;;5052862;28;20182;-76
2022/10/06 11:46:00;;;;;;;1.90;1.00;;;35.60;36.30;;;;;;5049545;28;20249;-76
2022/10/06 11:48:29;;;;;;;1.05;1.05;;;35.50;38.00;;;;;;5047855;28;20202;-76
2022/10/06 11:51:16;;;;;;;1.85;1.05;;;35.30;38.80;;;;;;5049666;28;20178;-76
2022/10/06 11:53:42;;;;;;;0.85;0.85;;;35.00;37.90;;;;;;5049897;28;20267;-75
2022/10/06 11:56:17;;;;;;;0.75;0.75;;;35.00;37.60;;;;;;5050315;28;20174;-75
2022/10/06 11:58:55;;;;;;;0.50;0.50;;;35.00;38.50;;;;;;5048992;28;20241;-75
2022/10/06 12:01:29;;;;;;;0.80;0.80;;;35.00;37.10;;;;;;5053562;28;20213;-75
2022/10/06 12:04:07;;;;;;;1.70;0.80;;;35.00;38.90;;;;;;5050509;28;20181;-75
2022/10/06 12:06:41;;;;;;;0.50;0.50;;;34.80;37.70;;;;;;5048137;28;20178;-75
2022/10/06 12:09:27;;;;;;;0.50;0.45;;;34.70;37.90;;;;;;5049522;28;20175;-75
2022/10/06 12:11:54;;;;;;;0.63;0.63;;;34.50;36.50;;;;;;5043131;28;20186;-75
2022/10/06 12:14:58;;;;;;;1.75;0.70;;;34.50;37.50;;;;;;5053733;28;20189;-75
2022/10/06 12:17:39;;;;;;;1.30;1.05;;;34.20;36.00;;;;;;5046476;28;20231;-75
2022/10/06 12:20:13;;;;;;;0.70;0.70;;;33.70;38.60;;;;;;5048393;28;20198;-75
2022/10/06 12:23:14;;;;;;;0.73;0.68;;;33.60;38.10;;;;;;5044554;28;20672;-78
2022/10/06 12:25:54;;;;;;;0.77;0.70;;;33.60;38.60;;;;;;5044698;28;20809;-78
2022/10/06 12:28:47;;;;;;;0.82;0.80;;;33.50;38.10;;;;;;5048107;28;20264;-76
2022/10/06 12:31:39;;;;;;;0.63;0.63;;;33.40;37.70;;;;;;5048608;28;20187;-76
2022/10/06 12:34:40;;;;;;;0.70;0.70;;;33.20;37.90;;;;;;5042512;28;20183;-76
2022/10/06 12:37:27;;;;;;;0.73;0.73;;;33.00;38.30;;;;;;5051499;28;20212;-76
2022/10/06 12:40:31;;;;;;;1.55;1.02;;;32.70;39.20;;;;;;5047253;28;20237;-76
2022/10/06 12:43:17;;;;;;;0.98;0.77;;;32.70;39.20;;;;;;5045686;28;20681;-76
2022/10/06 12:45:47;;;;;;;0.63;0.63;;;32.70;39.20;;;;;;5048974;28;20241;-76
2022/10/06 12:48:23;;;;;;;0.70;0.70;;;32.80;39.50;;;;;;5053972;28;20641;-76
2022/10/06 12:50:56;;;;;;;0.68;0.68;;;32.80;39.40;;;;;;5048393;28;20208;-76
2022/10/06 12:53:48;;;;;;;0.80;0.80;;;32.80;39.40;;;;;;5050475;28;20186;-76
2022/10/06 12:56:40;;;;;;;0.60;0.60;;;32.70;39.40;;;;;;5040145;28;20183;-76
2022/10/06 12:59:30;;;;;;;0.60;0.60;;;32.70;38.90;;;;;;5045475;28;20224;-76
2022/10/06 13:02:19;;;;;;;3.25;0.93;;;32.80;39.10;;;;;;5020208;28;20672;-76
2022/10/06 13:04:52;;;;;;;0.68;0.68;;;32.70;39.10;;;;;;5039035;28;20191;-76
2022/10/06 13:07:29;;;;;;;0.93;0.93;;;32.70;39.80;;;;;;5037050;28;20210;-75
2022/10/06 13:10:13;;;;;;;0.73;0.70;;;32.60;39.60;;;;;;5037383;28;20633;-75
2022/10/06 13:12:41;;;;;;;0.80;0.80;;;32.60;40.50;;;;;;5038869;28;20272;-75
2022/10/06 13:15:13;;;;;;;3.63;0.70;;;32.40;40.90;;;;;;5034831;28;20229;-75
2022/10/06 13:17:50;;;;;;;0.77;0.77;;;32.20;42.40;;;;;;5038498;28;20256;-75
2022/10/06 13:20:23;;;;;;;0.70;0.70;;;31.90;41.10;;;;;;5038092;28;20197;-76
2022/10/06 13:23:00;;;;;;;0.50;0.50;;;31.70;41.30;;;;;;5038399;28;20191;-75
2022/10/06 13:25:45;;;;;;;0.73;0.73;;;31.50;40.80;;;;;;5036009;28;20805;-76